sensor_id;sensor_type;location;lat;lon;timestamp;pressure;altitude;pressure_sealevel;temperature;humidity
44988;BME280;35735;52.226;21.254;2023-05-24T00:04:19;99909.50;;;17.09;90.61
44988;BME280;35735;52.226;21.254;2023-05-24T00:09:20;99906.12;;;17.01;91.06
44988;BME280;35735;52.226;21.254;2023-05-24T00:14:20;99904.44;;;16.97;91.22
44988;BME280;35735;52.226;21.254;2023-05-24T00:19:21;99906.12;;;17.01;91.60
44988;BME280;35735;52.226;21.254;2023-05-24T00:24:21;99888.09;;;16.97;90.70
44988;BME280;35735;52.226;21.254;2023-05-24T00:29:22;99894.50;;;16.96;90.84
44988;BME280;35735;52.226;21.254;2023-05-24T00:34:22;99894.66;;;16.91;88.78
44988;BME280;35735;52.226;21.254;2023-05-24T00:39:23;99883.66;;;16.94;89.06
44988;BME280;35735;52.226;21.254;2023-05-24T00:44:24;99891.66;;;16.99;89.72
44988;BME280;35735;52.226;21.254;2023-05-24T00:49:25;99889.69;;;17.04;88.88
44988;BME280;35735;52.226;21.254;2023-05-24T00:54:27;99876.03;;;17.04;89.59
44988;BME280;35735;52.226;21.254;2023-05-24T00:59:28;99876.94;;;17.04;89.85
44988;BME280;35735;52.226;21.254;2023-05-24T01:04:28;99879.69;;;17.03;90.01
44988;BME280;35735;52.226;21.254;2023-05-24T01:20:03;99864.63;;;16.93;85.84
44988;BME280;35735;52.226;21.254;2023-05-24T01:25:18;99866.53;;;16.91;85.45
44988;BME280;35735;52.226;21.254;2023-05-24T01:30:27;99863.78;;;16.91;84.74
44988;BME280;35735;52.226;21.254;2023-05-24T01:35:28;99866.38;;;16.94;84.30
44988;BME280;35735;52.226;21.254;2023-05-24T01:40:28;99871.00;;;16.92;83.74
44988;BME280;35735;52.226;21.254;2023-05-24T01:45:38;99863.59;;;16.95;83.26
44988;BME280;35735;52.226;21.254;2023-05-24T01:50:45;99871.72;;;16.97;82.80
44988;BME280;35735;52.226;21.254;2023-05-24T01:55:50;99874.41;;;16.98;82.54
44988;BME280;35735;52.226;21.254;2023-05-24T02:00:53;99868.81;;;17.03;82.30
44988;BME280;35735;52.226;21.254;2023-05-24T02:05:54;99874.16;;;17.06;81.81
44988;BME280;35735;52.226;21.254;2023-05-24T02:10:54;99877.59;;;17.11;81.81
44988;BME280;35735;52.226;21.254;2023-05-24T02:15:55;99880.13;;;17.17;81.75
44988;BME280;35735;52.226;21.254;2023-05-24T02:20:55;99887.13;;;17.25;82.11
44988;BME280;35735;52.226;21.254;2023-05-24T02:25:56;99887.91;;;17.28;82.14
44988;BME280;35735;52.226;21.254;2023-05-24T02:30:57;99894.22;;;17.29;82.96
44988;BME280;35735;52.226;21.254;2023-05-24T02:35:57;99895.50;;;17.18;84.20
44988;BME280;35735;52.226;21.254;2023-05-24T02:40:58;99896.75;;;17.10;85.16
44988;BME280;35735;52.226;21.254;2023-05-24T02:45:58;99892.31;;;17.06;85.56
44988;BME280;35735;52.226;21.254;2023-05-24T02:50:59;99897.09;;;16.99;85.78
44988;BME280;35735;52.226;21.254;2023-05-24T02:56:00;99898.50;;;16.84;86.53
44988;BME280;35735;52.226;21.254;2023-05-24T03:01:00;99894.47;;;16.69;87.20
44988;BME280;35735;52.226;21.254;2023-05-24T03:06:01;99901.91;;;16.64;87.45
44988;BME280;35735;52.226;21.254;2023-05-24T03:11:02;99900.16;;;16.61;88.09
44988;BME280;35735;52.226;21.254;2023-05-24T03:16:03;99897.25;;;16.67;86.49
44988;BME280;35735;52.226;21.254;2023-05-24T03:21:03;99897.47;;;16.60;86.85
44988;BME280;35735;52.226;21.254;2023-05-24T03:26:04;99904.69;;;16.62;87.23
44988;BME280;35735;52.226;21.254;2023-05-24T03:31:05;99914.56;;;16.65;88.33
44988;BME280;35735;52.226;21.254;2023-05-24T03:36:06;99912.69;;;16.67;88.45
44988;BME280;35735;52.226;21.254;2023-05-24T03:41:06;99919.81;;;16.71;88.12
44988;BME280;35735;52.226;21.254;2023-05-24T03:46:07;99915.31;;;16.70;88.04
44988;BME280;35735;52.226;21.254;2023-05-24T03:51:07;99917.34;;;16.63;86.92
44988;BME280;35735;52.226;21.254;2023-05-24T03:56:08;99919.22;;;16.61;86.48
44988;BME280;35735;52.226;21.254;2023-05-24T04:01:08;99919.44;;;16.55;85.99
44988;BME280;35735;52.226;21.254;2023-05-24T04:06:09;99925.56;;;16.62;85.97
44988;BME280;35735;52.226;21.254;2023-05-24T04:11:10;99926.31;;;16.67;86.30
44988;BME280;35735;52.226;21.254;2023-05-24T04:16:10;99927.47;;;16.60;85.78
44988;BME280;35735;52.226;21.254;2023-05-24T04:21:11;99933.53;;;16.68;85.62
44988;BME280;35735;52.226;21.254;2023-05-24T04:26:12;99937.66;;;16.81;85.79
44988;BME280;35735;52.226;21.254;2023-05-24T04:31:13;99933.59;;;16.95;86.68
44988;BME280;35735;52.226;21.254;2023-05-24T04:36:13;99935.06;;;17.05;86.23
44988;BME280;35735;52.226;21.254;2023-05-24T04:41:14;99950.22;;;17.14;85.54
44988;BME280;35735;52.226;21.254;2023-05-24T04:46:14;99945.31;;;17.23;85.31
44988;BME280;35735;52.226;21.254;2023-05-24T04:51:15;99950.41;;;17.34;84.72
44988;BME280;35735;52.226;21.254;2023-05-24T04:56:15;99961.66;;;17.50;84.99
44988;BME280;35735;52.226;21.254;2023-05-24T05:01:16;99958.31;;;17.67;84.63
44988;BME280;35735;52.226;21.254;2023-05-24T05:06:17;99957.81;;;17.81;83.91
44988;BME280;35735;52.226;21.254;2023-05-24T05:11:17;99955.53;;;17.94;83.99
44988;BME280;35735;52.226;21.254;2023-05-24T05:16:18;99965.09;;;18.06;83.66
44988;BME280;35735;52.226;21.254;2023-05-24T05:21:18;99968.16;;;18.22;83.87
44988;BME280;35735;52.226;21.254;2023-05-24T05:26:19;99971.25;;;18.36;83.09
44988;BME280;35735;52.226;21.254;2023-05-24T05:31:20;99975.91;;;18.56;82.51
44988;BME280;35735;52.226;21.254;2023-05-24T05:36:21;99976.09;;;18.74;82.00
44988;BME280;35735;52.226;21.254;2023-05-24T05:41:21;99985.19;;;18.98;81.63
44988;BME280;35735;52.226;21.254;2023-05-24T05:46:22;99980.31;;;19.27;81.38
44988;BME280;35735;52.226;21.254;2023-05-24T05:51:22;99986.13;;;19.39;79.73
44988;BME280;35735;52.226;21.254;2023-05-24T05:56:23;99996.44;;;19.55;80.51
44988;BME280;35735;52.226;21.254;2023-05-24T06:01:23;99999.66;;;19.65;79.30
44988;BME280;35735;52.226;21.254;2023-05-24T06:06:24;99986.09;;;20.03;79.28
44988;BME280;35735;52.226;21.254;2023-05-24T06:11:25;100005.94;;;20.28;76.58
44988;BME280;35735;52.226;21.254;2023-05-24T06:16:25;100016.28;;;20.80;75.12
44988;BME280;35735;52.226;21.254;2023-05-24T06:21:26;100019.53;;;21.25;72.35
44988;BME280;35735;52.226;21.254;2023-05-24T06:26:26;100014.69;;;21.49;72.41
44988;BME280;35735;52.226;21.254;2023-05-24T06:31:27;100019.06;;;22.06;71.80
44988;BME280;35735;52.226;21.254;2023-05-24T06:36:27;100019.75;;;22.60;71.64
44988;BME280;35735;52.226;21.254;2023-05-24T06:41:28;100032.38;;;22.96;68.73
44988;BME280;35735;52.226;21.254;2023-05-24T06:46:29;100046.69;;;22.53;69.01
44988;BME280;35735;52.226;21.254;2023-05-24T06:51:30;100043.69;;;22.42;68.54
44988;BME280;35735;52.226;21.254;2023-05-24T06:56:30;100050.41;;;22.19;68.36
44988;BME280;35735;52.226;21.254;2023-05-24T07:01:31;100053.56;;;21.94;69.21
44988;BME280;35735;52.226;21.254;2023-05-24T07:06:31;100052.75;;;22.09;70.37
44988;BME280;35735;52.226;21.254;2023-05-24T07:11:32;100053.69;;;22.43;70.67
44988;BME280;35735;52.226;21.254;2023-05-24T07:16:33;100062.66;;;22.96;69.42
44988;BME280;35735;52.226;21.254;2023-05-24T07:21:33;100073.97;;;23.39;68.39
44988;BME280;35735;52.226;21.254;2023-05-24T07:26:34;100070.06;;;23.74;67.05
44988;BME280;35735;52.226;21.254;2023-05-24T07:31:34;100086.50;;;23.75;65.84
44988;BME280;35735;52.226;21.254;2023-05-24T07:36:35;100085.47;;;23.62;67.52
44988;BME280;35735;52.226;21.254;2023-05-24T07:41:35;100095.59;;;23.77;65.51
44988;BME280;35735;52.226;21.254;2023-05-24T07:46:36;100089.69;;;23.99;66.54
44988;BME280;35735;52.226;21.254;2023-05-24T07:51:37;100095.50;;;24.39;65.34
44988;BME280;35735;52.226;21.254;2023-05-24T07:56:38;100108.19;;;24.42;63.54
44988;BME280;35735;52.226;21.254;2023-05-24T08:01:39;100113.66;;;24.13;63.63
44988;BME280;35735;52.226;21.254;2023-05-24T08:06:40;100114.44;;;24.15;63.67
44988;BME280;35735;52.226;21.254;2023-05-24T08:11:41;100112.03;;;24.54;64.21
44988;BME280;35735;52.226;21.254;2023-05-24T08:16:41;100114.28;;;24.77;62.91
44988;BME280;35735;52.226;21.254;2023-05-24T08:21:42;100106.47;;;24.99;62.56
44988;BME280;35735;52.226;21.254;2023-05-24T08:26:42;100120.28;;;25.13;62.12
44988;BME280;35735;52.226;21.254;2023-05-24T08:31:43;100119.09;;;25.31;61.41
44988;BME280;35735;52.226;21.254;2023-05-24T08:36:43;100128.75;;;25.66;62.19
44988;BME280;35735;52.226;21.254;2023-05-24T08:41:45;100122.97;;;25.98;60.56
44988;BME280;35735;52.226;21.254;2023-05-24T08:46:45;100122.13;;;26.23;59.09
44988;BME280;35735;52.226;21.254;2023-05-24T08:51:46;100127.25;;;26.55;59.27
44988;BME280;35735;52.226;21.254;2023-05-24T08:56:48;100126.41;;;26.80;59.10
44988;BME280;35735;52.226;21.254;2023-05-24T09:01:52;100129.94;;;26.69;56.83
44988;BME280;35735;52.226;21.254;2023-05-24T09:06:53;100132.53;;;26.58;57.38
44988;BME280;35735;52.226;21.254;2023-05-24T09:11:56;100135.09;;;26.35;57.29
44988;BME280;35735;52.226;21.254;2023-05-24T09:16:58;100145.81;;;26.27;58.66
44988;BME280;35735;52.226;21.254;2023-05-24T09:21:59;100143.91;;;26.28;58.80
44988;BME280;35735;52.226;21.254;2023-05-24T09:27:04;100149.78;;;26.36;57.36
44988;BME280;35735;52.226;21.254;2023-05-24T09:32:06;100149.91;;;26.34;58.07
44988;BME280;35735;52.226;21.254;2023-05-24T09:37:13;100154.75;;;26.31;55.56
44988;BME280;35735;52.226;21.254;2023-05-24T09:42:19;100163.47;;;26.12;56.05
44988;BME280;35735;52.226;21.254;2023-05-24T09:47:21;100157.53;;;26.18;56.38
44988;BME280;35735;52.226;21.254;2023-05-24T09:52:21;100167.22;;;26.11;54.63
44988;BME280;35735;52.226;21.254;2023-05-24T09:57:22;100165.34;;;26.11;54.88
44988;BME280;35735;52.226;21.254;2023-05-24T10:02:24;100163.56;;;26.10;54.15
44988;BME280;35735;52.226;21.254;2023-05-24T10:07:25;100167.88;;;26.01;54.06
44988;BME280;35735;52.226;21.254;2023-05-24T10:12:26;100167.78;;;26.16;53.75
44988;BME280;35735;52.226;21.254;2023-05-24T10:17:27;100164.28;;;26.39;53.89
44988;BME280;35735;52.226;21.254;2023-05-24T10:22:28;100158.72;;;26.79;53.47
44988;BME280;35735;52.226;21.254;2023-05-24T10:27:30;100170.03;;;27.15;52.31
44988;BME280;35735;52.226;21.254;2023-05-24T10:32:34;100168.34;;;27.12;51.16
44988;BME280;35735;52.226;21.254;2023-05-24T10:37:37;100161.59;;;27.16;49.19
44988;BME280;35735;52.226;21.254;2023-05-24T10:42:37;100168.47;;;27.11;49.20
44988;BME280;35735;52.226;21.254;2023-05-24T10:47:38;100180.88;;;27.05;50.39
44988;BME280;35735;52.226;21.254;2023-05-24T10:52:39;100169.66;;;27.20;50.69
44988;BME280;35735;52.226;21.254;2023-05-24T10:57:39;100187.72;;;27.38;50.60
44988;BME280;35735;52.226;21.254;2023-05-24T11:02:40;100181.31;;;27.38;50.24
44988;BME280;35735;52.226;21.254;2023-05-24T11:07:41;100180.66;;;27.34;51.93
44988;BME280;35735;52.226;21.254;2023-05-24T11:12:42;100180.88;;;27.44;52.73
44988;BME280;35735;52.226;21.254;2023-05-24T11:23:08;100192.78;;;27.70;53.52
44988;BME280;35735;52.226;21.254;2023-05-24T11:28:09;100199.09;;;27.72;54.09
44988;BME280;35735;52.226;21.254;2023-05-24T11:33:16;100195.81;;;27.78;53.11
44988;BME280;35735;52.226;21.254;2023-05-24T11:38:18;100195.66;;;27.68;53.06
44988;BME280;35735;52.226;21.254;2023-05-24T11:43:19;100196.56;;;27.56;53.29
44988;BME280;35735;52.226;21.254;2023-05-24T11:48:20;100192.81;;;27.57;53.64
44988;BME280;35735;52.226;21.254;2023-05-24T11:53:21;100197.91;;;27.63;54.04
44988;BME280;35735;52.226;21.254;2023-05-24T11:58:25;100197.00;;;27.63;52.26
44988;BME280;35735;52.226;21.254;2023-05-24T12:03:29;100192.38;;;27.50;51.92
44988;BME280;35735;52.226;21.254;2023-05-24T12:08:29;100191.72;;;27.47;51.46
44988;BME280;35735;52.226;21.254;2023-05-24T12:13:30;100195.28;;;27.10;51.82
44988;BME280;35735;52.226;21.254;2023-05-24T12:18:31;100191.72;;;26.83;51.63
44988;BME280;35735;52.226;21.254;2023-05-24T12:23:31;100195.16;;;26.73;52.75
44988;BME280;35735;52.226;21.254;2023-05-24T12:28:33;100190.81;;;26.56;54.49
44988;BME280;35735;52.226;21.254;2023-05-24T12:33:34;100196.87;;;26.49;55.32
44988;BME280;35735;52.226;21.254;2023-05-24T12:38:34;100194.97;;;26.49;55.80
44988;BME280;35735;52.226;21.254;2023-05-24T12:43:35;100186.78;;;26.48;56.01
44988;BME280;35735;52.226;21.254;2023-05-24T12:48:36;100196.50;;;26.40;56.18
44988;BME280;35735;52.226;21.254;2023-05-24T12:53:36;100191.53;;;26.46;57.04
44988;BME280;35735;52.226;21.254;2023-05-24T12:58:37;100194.75;;;26.52;56.97
44988;BME280;35735;52.226;21.254;2023-05-24T13:03:37;100187.69;;;26.61;57.19
44988;BME280;35735;52.226;21.254;2023-05-24T13:08:38;100190.34;;;26.62;56.92
44988;BME280;35735;52.226;21.254;2023-05-24T13:13:38;100192.87;;;26.53;60.53
44988;BME280;35735;52.226;21.254;2023-05-24T13:18:39;100210.09;;;26.31;63.30
44988;BME280;35735;52.226;21.254;2023-05-24T13:23:39;100206.13;;;26.07;64.91
44988;BME280;35735;52.226;21.254;2023-05-24T13:28:40;100206.56;;;25.87;66.40
44988;BME280;35735;52.226;21.254;2023-05-24T13:33:40;100204.66;;;25.75;68.31
44988;BME280;35735;52.226;21.254;2023-05-24T13:38:41;100203.88;;;25.58;70.36
44988;BME280;35735;52.226;21.254;2023-05-24T13:43:42;100198.91;;;25.36;69.91
44988;BME280;35735;52.226;21.254;2023-05-24T13:48:42;100210.28;;;25.15;70.18
44988;BME280;35735;52.226;21.254;2023-05-24T13:53:43;100206.84;;;24.98;69.74
44988;BME280;35735;52.226;21.254;2023-05-24T13:58:43;100201.88;;;24.74;69.96
44988;BME280;35735;52.226;21.254;2023-05-24T14:03:44;100210.75;;;24.65;70.59
44988;BME280;35735;52.226;21.254;2023-05-24T14:08:44;100220.00;;;24.64;72.13
44988;BME280;35735;52.226;21.254;2023-05-24T14:13:47;100224.97;;;24.73;73.51
44988;BME280;35735;52.226;21.254;2023-05-24T14:18:47;100223.44;;;24.67;75.19
44988;BME280;35735;52.226;21.254;2023-05-24T14:23:49;100222.25;;;24.57;75.97
44988;BME280;35735;52.226;21.254;2023-05-24T14:28:49;100216.28;;;24.49;76.93
44988;BME280;35735;52.226;21.254;2023-05-24T14:33:50;100209.09;;;24.46;76.43
44988;BME280;35735;52.226;21.254;2023-05-24T14:38:50;100216.37;;;24.47;73.98
44988;BME280;35735;52.226;21.254;2023-05-24T14:43:51;100211.16;;;24.42;71.75
44988;BME280;35735;52.226;21.254;2023-05-24T14:48:52;100214.28;;;24.36;71.25
44988;BME280;35735;52.226;21.254;2023-05-24T14:53:52;100225.31;;;24.36;69.82
44988;BME280;35735;52.226;21.254;2023-05-24T14:58:53;100224.22;;;24.39;66.64
44988;BME280;35735;52.226;21.254;2023-05-24T15:03:53;100210.16;;;24.44;65.84
44988;BME280;35735;52.226;21.254;2023-05-24T15:08:54;100218.53;;;24.42;64.20
44988;BME280;35735;52.226;21.254;2023-05-24T15:13:54;100212.44;;;24.51;63.83
44988;BME280;35735;52.226;21.254;2023-05-24T15:18:55;100217.97;;;24.51;64.64
44988;BME280;35735;52.226;21.254;2023-05-24T15:23:55;100217.97;;;24.51;65.12
44988;BME280;35735;52.226;21.254;2023-05-24T15:28:56;100217.78;;;24.54;65.16
44988;BME280;35735;52.226;21.254;2023-05-24T15:33:56;100227.31;;;24.65;64.55
44988;BME280;35735;52.226;21.254;2023-05-24T15:38:57;100230.37;;;24.74;64.66
44988;BME280;35735;52.226;21.254;2023-05-24T15:43:58;100242.22;;;24.76;66.22
44988;BME280;35735;52.226;21.254;2023-05-24T15:48:58;100253.72;;;24.69;68.33
44988;BME280;35735;52.226;21.254;2023-05-24T15:53:59;100256.97;;;24.75;69.91
44988;BME280;35735;52.226;21.254;2023-05-24T15:59:00;100267.13;;;24.75;71.53
44988;BME280;35735;52.226;21.254;2023-05-24T16:04:00;100266.53;;;24.70;72.81
44988;BME280;35735;52.226;21.254;2023-05-24T16:09:01;100283.88;;;24.72;73.73
44988;BME280;35735;52.226;21.254;2023-05-24T16:14:01;100291.72;;;24.64;74.92
44988;BME280;35735;52.226;21.254;2023-05-24T16:19:02;100285.84;;;24.54;76.32
44988;BME280;35735;52.226;21.254;2023-05-24T16:24:03;100294.16;;;24.38;77.66
44988;BME280;35735;52.226;21.254;2023-05-24T16:29:04;100296.16;;;24.20;79.35
44988;BME280;35735;52.226;21.254;2023-05-24T16:34:05;100291.37;;;24.08;80.60
44988;BME280;35735;52.226;21.254;2023-05-24T16:39:05;100300.06;;;24.00;81.75
44988;BME280;35735;52.226;21.254;2023-05-24T16:44:06;100294.56;;;23.84;83.15
44988;BME280;35735;52.226;21.254;2023-05-24T16:49:06;100315.13;;;23.61;84.62
44988;BME280;35735;52.226;21.254;2023-05-24T16:54:07;100313.31;;;23.44;85.44
44988;BME280;35735;52.226;21.254;2023-05-24T16:59:07;100326.28;;;23.24;86.12
44988;BME280;35735;52.226;21.254;2023-05-24T17:04:08;100324.50;;;23.06;86.81
44988;BME280;35735;52.226;21.254;2023-05-24T17:09:09;100330.16;;;22.85;87.30
44988;BME280;35735;52.226;21.254;2023-05-24T17:14:09;100337.03;;;22.76;87.73
44988;BME280;35735;52.226;21.254;2023-05-24T17:19:10;100338.13;;;22.55;88.23
44988;BME280;35735;52.226;21.254;2023-05-24T17:24:10;100333.13;;;22.46;88.58
44988;BME280;35735;52.226;21.254;2023-05-24T17:29:11;100341.97;;;22.33;89.06
44988;BME280;35735;52.226;21.254;2023-05-24T17:34:14;100350.16;;;22.16;89.41
44988;BME280;35735;52.226;21.254;2023-05-24T17:39:14;100355.50;;;22.00;89.90
44988;BME280;35735;52.226;21.254;2023-05-24T17:44:15;100353.28;;;21.89;90.23
44988;BME280;35735;52.226;21.254;2023-05-24T17:49:16;100351.63;;;21.85;90.65
44988;BME280;35735;52.226;21.254;2023-05-24T17:54:16;100363.97;;;21.76;90.82
44988;BME280;35735;52.226;21.254;2023-05-24T17:59:17;100367.97;;;21.69;90.81
44988;BME280;35735;52.226;21.254;2023-05-24T18:04:17;100374.78;;;21.60;91.28
44988;BME280;35735;52.226;21.254;2023-05-24T18:09:18;100374.31;;;21.51;91.35
44988;BME280;35735;52.226;21.254;2023-05-24T18:14:18;100376.97;;;21.32;91.87
44988;BME280;35735;52.226;21.254;2023-05-24T18:19:19;100377.72;;;21.15;92.27
44988;BME280;35735;52.226;21.254;2023-05-24T18:24:19;100388.38;;;21.02;92.79
44988;BME280;35735;52.226;21.254;2023-05-24T18:29:20;100404.84;;;21.02;93.07
44988;BME280;35735;52.226;21.254;2023-05-24T18:34:20;100412.09;;;21.03;93.30
44988;BME280;35735;52.226;21.254;2023-05-24T18:39:21;100428.06;;;20.93;93.60
44988;BME280;35735;52.226;21.254;2023-05-24T18:44:22;100433.19;;;20.80;93.90
44988;BME280;35735;52.226;21.254;2023-05-24T18:49:22;100433.69;;;20.68;94.09
44988;BME280;35735;52.226;21.254;2023-05-24T18:54:23;100435.06;;;20.56;94.44
44988;BME280;35735;52.226;21.254;2023-05-24T18:59:23;100445.38;;;20.49;94.62
44988;BME280;35735;52.226;21.254;2023-05-24T19:04:24;100447.31;;;20.47;94.85
44988;BME280;35735;52.226;21.254;2023-05-24T19:09:24;100459.59;;;20.37;94.96
44988;BME280;35735;52.226;21.254;2023-05-24T19:14:25;100454.22;;;20.34;95.09
44988;BME280;35735;52.226;21.254;2023-05-24T19:19:26;100459.12;;;20.26;95.23
44988;BME280;35735;52.226;21.254;2023-05-24T19:24:26;100464.97;;;20.16;95.45
44988;BME280;35735;52.226;21.254;2023-05-24T19:29:27;100463.47;;;20.08;95.67
44988;BME280;35735;52.226;21.254;2023-05-24T19:34:27;100463.69;;;20.03;95.90
44988;BME280;35735;52.226;21.254;2023-05-24T19:39:28;100471.19;;;19.98;96.06
44988;BME280;35735;52.226;21.254;2023-05-24T19:44:28;100481.37;;;19.93;96.29
44988;BME280;35735;52.226;21.254;2023-05-24T19:49:29;100489.19;;;19.80;96.55
44988;BME280;35735;52.226;21.254;2023-05-24T19:54:30;100484.00;;;19.71;96.85
44988;BME280;35735;52.226;21.254;2023-05-24T19:59:30;100493.56;;;19.59;97.18
44988;BME280;35735;52.226;21.254;2023-05-24T20:04:31;100498.31;;;19.54;97.57
44988;BME280;35735;52.226;21.254;2023-05-24T20:09:31;100494.84;;;19.49;97.74
44988;BME280;35735;52.226;21.254;2023-05-24T20:14:32;100495.50;;;19.30;98.09
44988;BME280;35735;52.226;21.254;2023-05-24T20:19:32;100494.03;;;19.20;98.45
44988;BME280;35735;52.226;21.254;2023-05-24T20:24:33;100493.66;;;19.04;98.85
44988;BME280;35735;52.226;21.254;2023-05-24T20:29:33;100504.00;;;18.94;99.09
44988;BME280;35735;52.226;21.254;2023-05-24T20:34:34;100506.09;;;18.86;99.33
44988;BME280;35735;52.226;21.254;2023-05-24T20:39:34;100502.59;;;18.81;99.61
44988;BME280;35735;52.226;21.254;2023-05-24T20:44:35;100503.84;;;18.70;99.77
44988;BME280;35735;52.226;21.254;2023-05-24T20:49:36;100506.88;;;18.61;100.00
44988;BME280;35735;52.226;21.254;2023-05-24T20:54:37;100517.91;;;18.58;100.00
44988;BME280;35735;52.226;21.254;2023-05-24T20:59:37;100518.16;;;18.50;100.00
44988;BME280;35735;52.226;21.254;2023-05-24T21:04:38;100522.72;;;18.50;100.00
44988;BME280;35735;52.226;21.254;2023-05-24T21:09:38;100524.87;;;18.39;100.00
44988;BME280;35735;52.226;21.254;2023-05-24T21:14:40;100525.94;;;18.35;100.00
44988;BME280;35735;52.226;21.254;2023-05-24T21:19:40;100527.78;;;18.32;100.00
44988;BME280;35735;52.226;21.254;2023-05-24T21:24:41;100538.94;;;18.26;100.00
44988;BME280;35735;52.226;21.254;2023-05-24T21:29:41;100536.28;;;18.23;100.00
44988;BME280;35735;52.226;21.254;2023-05-24T21:34:42;100552.75;;;18.20;100.00
44988;BME280;35735;52.226;21.254;2023-05-24T21:39:43;100542.88;;;18.16;100.00
44988;BME280;35735;52.226;21.254;2023-05-24T21:44:43;100546.63;;;18.12;100.00
44988;BME280;35735;52.226;21.254;2023-05-24T21:49:44;100553.97;;;18.10;100.00
44988;BME280;35735;52.226;21.254;2023-05-24T21:54:44;100545.03;;;18.05;100.00
44988;BME280;35735;52.226;21.254;2023-05-24T21:59:45;100548.78;;;18.01;100.00
44988;BME280;35735;52.226;21.254;2023-05-24T22:04:45;100556.13;;;17.99;100.00
44988;BME280;35735;52.226;21.254;2023-05-24T22:09:47;100557.38;;;17.87;100.00
44988;BME280;35735;52.226;21.254;2023-05-24T22:14:47;100553.19;;;17.72;100.00
44988;BME280;35735;52.226;21.254;2023-05-24T22:19:48;100556.03;;;17.67;100.00
44988;BME280;35735;52.226;21.254;2023-05-24T22:24:48;100558.91;;;17.63;100.00
44988;BME280;35735;52.226;21.254;2023-05-24T22:29:49;100556.50;;;17.50;100.00
44988;BME280;35735;52.226;21.254;2023-05-24T22:34:49;100559.41;;;17.44;100.00
44988;BME280;35735;52.226;21.254;2023-05-24T22:39:50;100558.66;;;17.37;100.00
44988;BME280;35735;52.226;21.254;2023-05-24T22:44:50;100566.25;;;17.25;100.00
44988;BME280;35735;52.226;21.254;2023-05-24T22:49:51;100573.03;;;17.08;100.00
44988;BME280;35735;52.226;21.254;2023-05-24T22:54:52;100574.97;;;17.03;100.00
44988;BME280;35735;52.226;21.254;2023-05-24T22:59:52;100574.31;;;16.92;100.00
44988;BME280;35735;52.226;21.254;2023-05-24T23:04:53;100566.22;;;16.89;100.00
44988;BME280;35735;52.226;21.254;2023-05-24T23:09:54;100569.91;;;16.88;100.00
44988;BME280;35735;52.226;21.254;2023-05-24T23:14:54;100567.41;;;16.75;100.00
44988;BME280;35735;52.226;21.254;2023-05-24T23:19:55;100559.37;;;16.69;100.00
44988;BME280;35735;52.226;21.254;2023-05-24T23:24:55;100567.81;;;16.57;100.00
44988;BME280;35735;52.226;21.254;2023-05-24T23:29:56;100566.22;;;16.48;100.00
44988;BME280;35735;52.226;21.254;2023-05-24T23:34:56;100564.59;;;16.39;100.00
44988;BME280;35735;52.226;21.254;2023-05-24T23:39:57;100576.59;;;16.30;100.00
44988;BME280;35735;52.226;21.254;2023-05-24T23:44:58;100584.94;;;16.21;100.00
44988;BME280;35735;52.226;21.254;2023-05-24T23:49:58;100586.09;;;16.09;100.00
44988;BME280;35735;52.226;21.254;2023-05-24T23:54:59;100588.88;;;16.06;100.00
44988;BME280;35735;52.226;21.254;2023-05-24T23:59:59;100590.84;;;15.98;100.00
